sensor_id;sensor_type;location;lat;lon;timestamp;P1;durP1;ratioP1;P2;durP2;ratioP2
6135;SDS011;24008;42.664;23.372;2023-05-10T00:02:10;0.30;;;0.30;;
6135;SDS011;24008;42.664;23.372;2023-05-10T00:04:37;0.67;;;0.67;;
6135;SDS011;24008;42.664;23.372;2023-05-10T00:07:05;0.70;;;0.70;;
6135;SDS011;24008;42.664;23.372;2023-05-10T00:09:32;0.67;;;0.67;;
6135;SDS011;24008;42.664;23.372;2023-05-10T00:11:58;1.40;;;1.17;;
6135;SDS011;24008;42.664;23.372;2023-05-10T00:14:25;0.40;;;0.40;;
6135;SDS011;24008;42.664;23.372;2023-05-10T00:16:52;0.27;;;0.27;;
6135;SDS011;24008;42.664;23.372;2023-05-10T00:19:19;0.83;;;0.83;;
6135;SDS011;24008;42.664;23.372;2023-05-10T00:21:45;0.93;;;0.87;;
6135;SDS011;24008;42.664;23.372;2023-05-10T00:24:13;1.53;;;1.43;;
6135;SDS011;24008;42.664;23.372;2023-05-10T00:26:40;0.60;;;0.60;;
6135;SDS011;24008;42.664;23.372;2023-05-10T00:29:07;2.67;;;1.20;;
6135;SDS011;24008;42.664;23.372;2023-05-10T00:31:34;0.47;;;0.47;;
6135;SDS011;24008;42.664;23.372;2023-05-10T00:34:00;0.27;;;0.27;;
6135;SDS011;24008;42.664;23.372;2023-05-10T00:36:27;1.17;;;1.07;;
6135;SDS011;24008;42.664;23.372;2023-05-10T00:38:54;0.60;;;0.60;;
6135;SDS011;24008;42.664;23.372;2023-05-10T00:41:22;0.20;;;0.20;;
6135;SDS011;24008;42.664;23.372;2023-05-10T00:43:49;1.47;;;0.50;;
6135;SDS011;24008;42.664;23.372;2023-05-10T00:46:15;0.30;;;0.30;;
6135;SDS011;24008;42.664;23.372;2023-05-10T00:48:43;1.47;;;1.03;;
6135;SDS011;24008;42.664;23.372;2023-05-10T00:51:10;0.67;;;0.50;;
6135;SDS011;24008;42.664;23.372;2023-05-10T00:53:37;0.67;;;0.50;;
6135;SDS011;24008;42.664;23.372;2023-05-10T00:56:04;3.50;;;1.40;;
6135;SDS011;24008;42.664;23.372;2023-05-10T00:58:33;2.13;;;0.87;;
6135;SDS011;24008;42.664;23.372;2023-05-10T01:00:59;1.43;;;1.30;;
6135;SDS011;24008;42.664;23.372;2023-05-10T01:03:27;0.43;;;0.43;;
6135;SDS011;24008;42.664;23.372;2023-05-10T01:05:55;2.07;;;1.97;;
6135;SDS011;24008;42.664;23.372;2023-05-10T01:08:22;1.07;;;0.40;;
6135;SDS011;24008;42.664;23.372;2023-05-10T01:10:49;1.33;;;1.23;;
6135;SDS011;24008;42.664;23.372;2023-05-10T01:13:17;0.90;;;0.83;;
6135;SDS011;24008;42.664;23.372;2023-05-10T01:15:51;0.57;;;0.57;;
6135;SDS011;24008;42.664;23.372;2023-05-10T01:18:17;0.47;;;0.47;;
6135;SDS011;24008;42.664;23.372;2023-05-10T01:20:47;0.63;;;0.57;;
6135;SDS011;24008;42.664;23.372;2023-05-10T01:23:25;1.87;;;1.17;;
6135;SDS011;24008;42.664;23.372;2023-05-10T01:26:14;0.40;;;0.40;;
6135;SDS011;24008;42.664;23.372;2023-05-10T01:28:58;0.33;;;0.33;;
6135;SDS011;24008;42.664;23.372;2023-05-10T01:32:02;0.57;;;0.57;;
6135;SDS011;24008;42.664;23.372;2023-05-10T01:34:39;0.77;;;0.43;;
6135;SDS011;24008;42.664;23.372;2023-05-10T01:37:15;1.37;;;0.77;;
6135;SDS011;24008;42.664;23.372;2023-05-10T01:39:49;0.70;;;0.70;;
6135;SDS011;24008;42.664;23.372;2023-05-10T01:42:21;0.63;;;0.63;;
6135;SDS011;24008;42.664;23.372;2023-05-10T01:44:53;0.27;;;0.27;;
6135;SDS011;24008;42.664;23.372;2023-05-10T01:47:27;0.30;;;0.30;;
6135;SDS011;24008;42.664;23.372;2023-05-10T01:50:02;0.50;;;0.50;;
6135;SDS011;24008;42.664;23.372;2023-05-10T01:52:41;1.77;;;0.93;;
6135;SDS011;24008;42.664;23.372;2023-05-10T01:55:14;0.50;;;0.50;;
6135;SDS011;24008;42.664;23.372;2023-05-10T01:57:44;0.23;;;0.23;;
6135;SDS011;24008;42.664;23.372;2023-05-10T02:00:14;0.20;;;0.20;;
6135;SDS011;24008;42.664;23.372;2023-05-10T02:02:44;0.50;;;0.50;;
6135;SDS011;24008;42.664;23.372;2023-05-10T02:05:12;0.67;;;0.67;;
6135;SDS011;24008;42.664;23.372;2023-05-10T02:07:40;0.73;;;0.73;;
6135;SDS011;24008;42.664;23.372;2023-05-10T02:10:08;0.20;;;0.20;;
6135;SDS011;24008;42.664;23.372;2023-05-10T02:12:37;0.87;;;0.40;;
6135;SDS011;24008;42.664;23.372;2023-05-10T02:15:07;0.40;;;0.40;;
6135;SDS011;24008;42.664;23.372;2023-05-10T02:17:37;0.30;;;0.30;;
6135;SDS011;24008;42.664;23.372;2023-05-10T02:20:07;0.80;;;0.80;;
6135;SDS011;24008;42.664;23.372;2023-05-10T02:22:35;0.30;;;0.30;;
6135;SDS011;24008;42.664;23.372;2023-05-10T02:25:04;1.17;;;1.17;;
6135;SDS011;24008;42.664;23.372;2023-05-10T02:27:33;0.40;;;0.40;;
6135;SDS011;24008;42.664;23.372;2023-05-10T02:30:01;0.87;;;0.67;;
6135;SDS011;24008;42.664;23.372;2023-05-10T02:32:28;0.30;;;0.30;;
6135;SDS011;24008;42.664;23.372;2023-05-10T02:34:56;0.53;;;0.53;;
6135;SDS011;24008;42.664;23.372;2023-05-10T02:37:25;0.53;;;0.53;;
6135;SDS011;24008;42.664;23.372;2023-05-10T02:39:53;0.30;;;0.30;;
6135;SDS011;24008;42.664;23.372;2023-05-10T02:42:22;0.83;;;0.83;;
6135;SDS011;24008;42.664;23.372;2023-05-10T02:44:52;0.60;;;0.60;;
6135;SDS011;24008;42.664;23.372;2023-05-10T02:47:22;0.20;;;0.20;;
6135;SDS011;24008;42.664;23.372;2023-05-10T02:49:49;0.20;;;0.20;;
6135;SDS011;24008;42.664;23.372;2023-05-10T02:52:16;0.70;;;0.70;;
6135;SDS011;24008;42.664;23.372;2023-05-10T02:54:50;0.30;;;0.30;;
6135;SDS011;24008;42.664;23.372;2023-05-10T02:57:22;0.27;;;0.27;;
6135;SDS011;24008;42.664;23.372;2023-05-10T02:59:53;0.63;;;0.63;;
6135;SDS011;24008;42.664;23.372;2023-05-10T03:02:21;0.60;;;0.60;;
6135;SDS011;24008;42.664;23.372;2023-05-10T03:04:47;0.40;;;0.40;;
6135;SDS011;24008;42.664;23.372;2023-05-10T03:07:14;0.73;;;0.73;;
6135;SDS011;24008;42.664;23.372;2023-05-10T03:09:41;0.30;;;0.30;;
6135;SDS011;24008;42.664;23.372;2023-05-10T03:12:11;0.30;;;0.30;;
6135;SDS011;24008;42.664;23.372;2023-05-10T03:14:48;2.23;;;1.23;;
6135;SDS011;24008;42.664;23.372;2023-05-10T03:17:22;0.70;;;0.70;;
6135;SDS011;24008;42.664;23.372;2023-05-10T03:19:55;0.40;;;0.40;;
6135;SDS011;24008;42.664;23.372;2023-05-10T03:22:25;0.70;;;0.70;;
6135;SDS011;24008;42.664;23.372;2023-05-10T03:24:55;1.80;;;0.97;;
6135;SDS011;24008;42.664;23.372;2023-05-10T03:27:25;0.47;;;0.47;;
6135;SDS011;24008;42.664;23.372;2023-05-10T03:29:53;0.50;;;0.50;;
6135;SDS011;24008;42.664;23.372;2023-05-10T03:32:21;0.40;;;0.40;;
6135;SDS011;24008;42.664;23.372;2023-05-10T03:34:48;0.30;;;0.30;;
6135;SDS011;24008;42.664;23.372;2023-05-10T03:37:15;1.23;;;0.80;;
6135;SDS011;24008;42.664;23.372;2023-05-10T03:39:42;0.30;;;0.30;;
6135;SDS011;24008;42.664;23.372;2023-05-10T03:42:09;0.40;;;0.33;;
6135;SDS011;24008;42.664;23.372;2023-05-10T03:44:38;1.07;;;1.07;;
6135;SDS011;24008;42.664;23.372;2023-05-10T03:47:05;2.83;;;1.00;;
6135;SDS011;24008;42.664;23.372;2023-05-10T03:49:32;0.40;;;0.40;;
6135;SDS011;24008;42.664;23.372;2023-05-10T03:51:59;0.30;;;0.30;;
6135;SDS011;24008;42.664;23.372;2023-05-10T03:54:26;0.67;;;0.67;;
6135;SDS011;24008;42.664;23.372;2023-05-10T03:56:52;0.30;;;0.30;;
6135;SDS011;24008;42.664;23.372;2023-05-10T03:59:19;0.40;;;0.40;;
6135;SDS011;24008;42.664;23.372;2023-05-10T04:01:47;12.33;;;8.70;;
6135;SDS011;24008;42.664;23.372;2023-05-10T04:04:14;12.80;;;8.00;;
6135;SDS011;24008;42.664;23.372;2023-05-10T04:06:43;10.33;;;7.43;;
6135;SDS011;24008;42.664;23.372;2023-05-10T04:09:10;11.27;;;7.97;;
6135;SDS011;24008;42.664;23.372;2023-05-10T04:11:37;9.13;;;6.73;;
6135;SDS011;24008;42.664;23.372;2023-05-10T04:14:04;9.40;;;6.80;;
6135;SDS011;24008;42.664;23.372;2023-05-10T04:16:30;9.37;;;6.83;;
6135;SDS011;24008;42.664;23.372;2023-05-10T04:18:59;10.23;;;7.53;;
6135;SDS011;24008;42.664;23.372;2023-05-10T04:21:25;15.27;;;8.43;;
6135;SDS011;24008;42.664;23.372;2023-05-10T04:23:52;10.13;;;7.47;;
6135;SDS011;24008;42.664;23.372;2023-05-10T04:26:19;11.27;;;8.10;;
6135;SDS011;24008;42.664;23.372;2023-05-10T04:28:50;11.13;;;7.47;;
6135;SDS011;24008;42.664;23.372;2023-05-10T04:31:17;10.27;;;7.27;;
6135;SDS011;24008;42.664;23.372;2023-05-10T04:33:43;9.97;;;8.07;;
6135;SDS011;24008;42.664;23.372;2023-05-10T04:36:11;10.83;;;8.00;;
6135;SDS011;24008;42.664;23.372;2023-05-10T04:38:38;13.37;;;8.20;;
6135;SDS011;24008;42.664;23.372;2023-05-10T04:41:05;9.50;;;7.33;;
6135;SDS011;24008;42.664;23.372;2023-05-10T04:43:33;12.23;;;7.27;;
6135;SDS011;24008;42.664;23.372;2023-05-10T04:46:00;12.03;;;7.60;;
6135;SDS011;24008;42.664;23.372;2023-05-10T04:48:27;10.23;;;6.27;;
6135;SDS011;24008;42.664;23.372;2023-05-10T04:50:54;11.07;;;8.20;;
6135;SDS011;24008;42.664;23.372;2023-05-10T04:53:22;9.57;;;7.07;;
6135;SDS011;24008;42.664;23.372;2023-05-10T04:55:49;13.97;;;9.13;;
6135;SDS011;24008;42.664;23.372;2023-05-10T04:58:16;13.70;;;9.40;;
6135;SDS011;24008;42.664;23.372;2023-05-10T05:00:43;12.53;;;8.17;;
6135;SDS011;24008;42.664;23.372;2023-05-10T05:03:10;12.17;;;9.27;;
6135;SDS011;24008;42.664;23.372;2023-05-10T05:05:36;13.17;;;8.93;;
6135;SDS011;24008;42.664;23.372;2023-05-10T05:08:03;12.07;;;8.30;;
6135;SDS011;24008;42.664;23.372;2023-05-10T05:10:32;10.43;;;8.50;;
6135;SDS011;24008;42.664;23.372;2023-05-10T05:12:58;11.63;;;8.83;;
6135;SDS011;24008;42.664;23.372;2023-05-10T05:15:25;13.20;;;8.90;;
6135;SDS011;24008;42.664;23.372;2023-05-10T05:17:52;16.80;;;9.10;;
6135;SDS011;24008;42.664;23.372;2023-05-10T05:20:19;15.27;;;10.60;;
6135;SDS011;24008;42.664;23.372;2023-05-10T05:22:46;15.87;;;10.57;;
6135;SDS011;24008;42.664;23.372;2023-05-10T05:25:13;14.53;;;9.83;;
6135;SDS011;24008;42.664;23.372;2023-05-10T05:27:41;16.53;;;10.70;;
6135;SDS011;24008;42.664;23.372;2023-05-10T05:30:08;13.20;;;8.87;;
6135;SDS011;24008;42.664;23.372;2023-05-10T05:32:36;14.60;;;9.53;;
6135;SDS011;24008;42.664;23.372;2023-05-10T05:35:03;13.97;;;9.30;;
6135;SDS011;24008;42.664;23.372;2023-05-10T05:37:30;16.23;;;8.83;;
6135;SDS011;24008;42.664;23.372;2023-05-10T05:39:57;14.10;;;9.23;;
6135;SDS011;24008;42.664;23.372;2023-05-10T05:42:26;8.80;;;6.50;;
6135;SDS011;24008;42.664;23.372;2023-05-10T05:44:54;12.87;;;9.00;;
6135;SDS011;24008;42.664;23.372;2023-05-10T05:47:21;13.17;;;8.67;;
6135;SDS011;24008;42.664;23.372;2023-05-10T05:49:47;15.53;;;10.10;;
6135;SDS011;24008;42.664;23.372;2023-05-10T05:52:14;12.60;;;9.50;;
6135;SDS011;24008;42.664;23.372;2023-05-10T05:54:41;12.27;;;9.20;;
6135;SDS011;24008;42.664;23.372;2023-05-10T05:57:08;16.73;;;10.80;;
6135;SDS011;24008;42.664;23.372;2023-05-10T05:59:35;14.63;;;9.37;;
6135;SDS011;24008;42.664;23.372;2023-05-10T06:02:09;14.97;;;9.60;;
6135;SDS011;24008;42.664;23.372;2023-05-10T06:04:36;15.50;;;11.17;;
6135;SDS011;24008;42.664;23.372;2023-05-10T06:07:03;14.23;;;10.70;;
6135;SDS011;24008;42.664;23.372;2023-05-10T06:09:29;15.53;;;9.60;;
6135;SDS011;24008;42.664;23.372;2023-05-10T06:11:56;23.10;;;11.00;;
6135;SDS011;24008;42.664;23.372;2023-05-10T06:14:23;16.93;;;11.73;;
6135;SDS011;24008;42.664;23.372;2023-05-10T06:16:50;19.20;;;11.97;;
6135;SDS011;24008;42.664;23.372;2023-05-10T06:19:18;16.67;;;11.03;;
6135;SDS011;24008;42.664;23.372;2023-05-10T06:21:45;14.73;;;11.37;;
6135;SDS011;24008;42.664;23.372;2023-05-10T06:24:11;18.33;;;11.67;;
6135;SDS011;24008;42.664;23.372;2023-05-10T06:26:38;15.87;;;10.57;;
6135;SDS011;24008;42.664;23.372;2023-05-10T06:29:05;16.43;;;11.23;;
6135;SDS011;24008;42.664;23.372;2023-05-10T06:31:32;15.43;;;10.97;;
6135;SDS011;24008;42.664;23.372;2023-05-10T06:33:59;16.20;;;10.80;;
6135;SDS011;24008;42.664;23.372;2023-05-10T06:36:27;14.20;;;10.50;;
6135;SDS011;24008;42.664;23.372;2023-05-10T06:38:54;14.27;;;9.73;;
6135;SDS011;24008;42.664;23.372;2023-05-10T06:41:21;12.13;;;8.10;;
6135;SDS011;24008;42.664;23.372;2023-05-10T06:43:48;11.80;;;8.97;;
6135;SDS011;24008;42.664;23.372;2023-05-10T06:46:14;15.30;;;10.40;;
6135;SDS011;24008;42.664;23.372;2023-05-10T06:48:41;10.93;;;7.67;;
6135;SDS011;24008;42.664;23.372;2023-05-10T06:51:08;16.83;;;10.40;;
6135;SDS011;24008;42.664;23.372;2023-05-10T06:53:36;16.97;;;9.37;;
6135;SDS011;24008;42.664;23.372;2023-05-10T06:56:03;17.13;;;10.03;;
6135;SDS011;24008;42.664;23.372;2023-05-10T06:58:30;13.80;;;9.33;;
6135;SDS011;24008;42.664;23.372;2023-05-10T07:04:23;13.13;;;9.17;;
6135;SDS011;24008;42.664;23.372;2023-05-10T07:06:50;14.50;;;9.10;;
6135;SDS011;24008;42.664;23.372;2023-05-10T07:09:18;13.93;;;10.13;;
6135;SDS011;24008;42.664;23.372;2023-05-10T07:11:45;10.57;;;7.43;;
6135;SDS011;24008;42.664;23.372;2023-05-10T07:14:11;16.67;;;9.27;;
6135;SDS011;24008;42.664;23.372;2023-05-10T07:16:38;14.13;;;8.67;;
6135;SDS011;24008;42.664;23.372;2023-05-10T07:19:05;13.73;;;9.00;;
6135;SDS011;24008;42.664;23.372;2023-05-10T07:21:32;16.83;;;9.20;;
6135;SDS011;24008;42.664;23.372;2023-05-10T07:24:00;16.27;;;10.33;;
6135;SDS011;24008;42.664;23.372;2023-05-10T07:26:28;12.50;;;8.97;;
6135;SDS011;24008;42.664;23.372;2023-05-10T07:29:15;15.33;;;9.67;;
6135;SDS011;24008;42.664;23.372;2023-05-10T07:31:42;15.20;;;9.97;;
6135;SDS011;24008;42.664;23.372;2023-05-10T07:34:09;14.77;;;10.13;;
6135;SDS011;24008;42.664;23.372;2023-05-10T07:36:36;15.70;;;10.70;;
6135;SDS011;24008;42.664;23.372;2023-05-10T07:39:03;14.73;;;10.87;;
6135;SDS011;24008;42.664;23.372;2023-05-10T07:41:31;14.93;;;11.13;;
6135;SDS011;24008;42.664;23.372;2023-05-10T07:43:58;13.60;;;10.43;;
6135;SDS011;24008;42.664;23.372;2023-05-10T07:46:25;17.30;;;10.93;;
6135;SDS011;24008;42.664;23.372;2023-05-10T07:48:52;15.63;;;11.23;;
6135;SDS011;24008;42.664;23.372;2023-05-10T07:51:18;14.87;;;9.93;;
6135;SDS011;24008;42.664;23.372;2023-05-10T07:53:45;17.97;;;11.77;;
6135;SDS011;24008;42.664;23.372;2023-05-10T07:56:22;14.47;;;8.23;;
6135;SDS011;24008;42.664;23.372;2023-05-10T07:58:53;15.13;;;10.20;;
6135;SDS011;24008;42.664;23.372;2023-05-10T08:01:21;13.33;;;10.70;;
6135;SDS011;24008;42.664;23.372;2023-05-10T08:03:48;16.30;;;11.47;;
6135;SDS011;24008;42.664;23.372;2023-05-10T08:06:16;16.73;;;11.23;;
6135;SDS011;24008;42.664;23.372;2023-05-10T08:08:43;14.80;;;11.30;;
6135;SDS011;24008;42.664;23.372;2023-05-10T08:11:14;15.63;;;10.43;;
6135;SDS011;24008;42.664;23.372;2023-05-10T08:13:41;18.00;;;10.53;;
6135;SDS011;24008;42.664;23.372;2023-05-10T08:16:09;12.27;;;8.60;;
6135;SDS011;24008;42.664;23.372;2023-05-10T08:18:36;15.10;;;10.97;;
6135;SDS011;24008;42.664;23.372;2023-05-10T08:21:03;12.27;;;8.87;;
6135;SDS011;24008;42.664;23.372;2023-05-10T08:23:30;14.90;;;10.33;;
6135;SDS011;24008;42.664;23.372;2023-05-10T08:25:57;17.17;;;11.93;;
6135;SDS011;24008;42.664;23.372;2023-05-10T08:28:24;15.37;;;11.07;;
6135;SDS011;24008;42.664;23.372;2023-05-10T08:30:50;15.47;;;10.73;;
6135;SDS011;24008;42.664;23.372;2023-05-10T08:33:19;13.80;;;10.80;;
6135;SDS011;24008;42.664;23.372;2023-05-10T08:35:45;13.57;;;10.40;;
6135;SDS011;24008;42.664;23.372;2023-05-10T08:38:12;18.57;;;9.93;;
6135;SDS011;24008;42.664;23.372;2023-05-10T08:40:39;18.23;;;11.23;;
6135;SDS011;24008;42.664;23.372;2023-05-10T08:43:09;15.63;;;11.13;;
6135;SDS011;24008;42.664;23.372;2023-05-10T08:45:38;16.03;;;9.97;;
6135;SDS011;24008;42.664;23.372;2023-05-10T08:48:06;14.77;;;10.73;;
6135;SDS011;24008;42.664;23.372;2023-05-10T08:50:37;15.33;;;12.40;;
6135;SDS011;24008;42.664;23.372;2023-05-10T08:53:05;13.70;;;9.67;;
6135;SDS011;24008;42.664;23.372;2023-05-10T08:55:35;17.93;;;12.17;;
6135;SDS011;24008;42.664;23.372;2023-05-10T08:58:03;15.63;;;9.47;;
6135;SDS011;24008;42.664;23.372;2023-05-10T09:00:30;14.97;;;10.73;;
6135;SDS011;24008;42.664;23.372;2023-05-10T09:02:58;17.67;;;13.67;;
6135;SDS011;24008;42.664;23.372;2023-05-10T09:05:25;21.33;;;12.80;;
6135;SDS011;24008;42.664;23.372;2023-05-10T09:07:53;15.70;;;11.50;;
6135;SDS011;24008;42.664;23.372;2023-05-10T09:10:20;15.33;;;10.27;;
6135;SDS011;24008;42.664;23.372;2023-05-10T09:12:51;16.63;;;10.87;;
6135;SDS011;24008;42.664;23.372;2023-05-10T09:15:19;16.10;;;10.87;;
6135;SDS011;24008;42.664;23.372;2023-05-10T09:17:46;17.27;;;10.40;;
6135;SDS011;24008;42.664;23.372;2023-05-10T09:20:15;17.90;;;12.67;;
6135;SDS011;24008;42.664;23.372;2023-05-10T09:22:43;14.70;;;11.40;;
6135;SDS011;24008;42.664;23.372;2023-05-10T09:25:12;18.80;;;13.23;;
6135;SDS011;24008;42.664;23.372;2023-05-10T09:27:41;17.90;;;13.83;;
6135;SDS011;24008;42.664;23.372;2023-05-10T09:30:14;19.10;;;12.60;;
6135;SDS011;24008;42.664;23.372;2023-05-10T09:32:42;17.30;;;13.00;;
6135;SDS011;24008;42.664;23.372;2023-05-10T09:35:11;18.30;;;13.50;;
6135;SDS011;24008;42.664;23.372;2023-05-10T09:37:39;16.90;;;13.30;;
6135;SDS011;24008;42.664;23.372;2023-05-10T09:40:10;17.23;;;12.80;;
6135;SDS011;24008;42.664;23.372;2023-05-10T09:42:41;19.10;;;13.43;;
6135;SDS011;24008;42.664;23.372;2023-05-10T09:45:08;18.37;;;12.90;;
6135;SDS011;24008;42.664;23.372;2023-05-10T09:47:36;15.90;;;11.40;;
6135;SDS011;24008;42.664;23.372;2023-05-10T09:50:03;14.00;;;11.37;;
6135;SDS011;24008;42.664;23.372;2023-05-10T09:52:30;16.57;;;13.00;;
6135;SDS011;24008;42.664;23.372;2023-05-10T09:55:13;19.60;;;13.30;;
6135;SDS011;24008;42.664;23.372;2023-05-10T09:57:40;18.83;;;12.70;;
6135;SDS011;24008;42.664;23.372;2023-05-10T10:00:07;20.40;;;13.73;;
6135;SDS011;24008;42.664;23.372;2023-05-10T10:02:35;18.20;;;12.37;;
6135;SDS011;24008;42.664;23.372;2023-05-10T10:05:02;18.20;;;12.97;;
6135;SDS011;24008;42.664;23.372;2023-05-10T10:07:29;18.53;;;13.53;;
6135;SDS011;24008;42.664;23.372;2023-05-10T10:09:56;14.83;;;11.33;;
6135;SDS011;24008;42.664;23.372;2023-05-10T10:12:45;14.63;;;12.23;;
6135;SDS011;24008;42.664;23.372;2023-05-10T10:15:12;15.47;;;11.63;;
6135;SDS011;24008;42.664;23.372;2023-05-10T10:17:39;17.93;;;11.10;;
6135;SDS011;24008;42.664;23.372;2023-05-10T10:20:07;16.10;;;11.03;;
6135;SDS011;24008;42.664;23.372;2023-05-10T10:22:35;15.07;;;10.77;;
6135;SDS011;24008;42.664;23.372;2023-05-10T10:25:03;16.03;;;11.30;;
6135;SDS011;24008;42.664;23.372;2023-05-10T10:27:34;13.23;;;10.00;;
6135;SDS011;24008;42.664;23.372;2023-05-10T10:30:13;16.37;;;10.80;;
6135;SDS011;24008;42.664;23.372;2023-05-10T10:32:55;14.00;;;10.73;;
6135;SDS011;24008;42.664;23.372;2023-05-10T10:35:33;13.90;;;10.47;;
6135;SDS011;24008;42.664;23.372;2023-05-10T10:38:01;10.47;;;9.33;;
6135;SDS011;24008;42.664;23.372;2023-05-10T10:40:29;10.27;;;9.00;;
6135;SDS011;24008;42.664;23.372;2023-05-10T10:42:57;14.60;;;9.93;;
6135;SDS011;24008;42.664;23.372;2023-05-10T10:45:25;13.90;;;10.00;;
6135;SDS011;24008;42.664;23.372;2023-05-10T10:47:56;18.27;;;10.57;;
6135;SDS011;24008;42.664;23.372;2023-05-10T10:50:47;13.17;;;10.00;;
6135;SDS011;24008;42.664;23.372;2023-05-10T10:53:22;11.30;;;9.83;;
6135;SDS011;24008;42.664;23.372;2023-05-10T10:55:48;15.30;;;9.27;;
6135;SDS011;24008;42.664;23.372;2023-05-10T10:58:28;14.07;;;9.90;;
6135;SDS011;24008;42.664;23.372;2023-05-10T11:01:10;11.00;;;8.40;;
6135;SDS011;24008;42.664;23.372;2023-05-10T11:03:38;11.10;;;8.40;;
6135;SDS011;24008;42.664;23.372;2023-05-10T11:06:05;15.03;;;9.10;;
6135;SDS011;24008;42.664;23.372;2023-05-10T11:08:34;9.60;;;8.50;;
6135;SDS011;24008;42.664;23.372;2023-05-10T11:11:07;12.90;;;9.80;;
6135;SDS011;24008;42.664;23.372;2023-05-10T11:13:37;11.60;;;8.23;;
6135;SDS011;24008;42.664;23.372;2023-05-10T11:16:13;13.83;;;10.43;;
6135;SDS011;24008;42.664;23.372;2023-05-10T11:18:51;11.20;;;9.67;;
6135;SDS011;24008;42.664;23.372;2023-05-10T11:21:24;13.20;;;10.10;;
6135;SDS011;24008;42.664;23.372;2023-05-10T11:23:51;16.57;;;9.77;;
6135;SDS011;24008;42.664;23.372;2023-05-10T11:26:21;15.80;;;9.80;;
6135;SDS011;24008;42.664;23.372;2023-05-10T11:28:51;12.00;;;8.80;;
6135;SDS011;24008;42.664;23.372;2023-05-10T11:31:21;11.30;;;9.30;;
6135;SDS011;24008;42.664;23.372;2023-05-10T11:33:48;13.73;;;10.13;;
6135;SDS011;24008;42.664;23.372;2023-05-10T11:36:17;14.97;;;10.07;;
6135;SDS011;24008;42.664;23.372;2023-05-10T11:38:44;14.23;;;9.63;;
6135;SDS011;24008;42.664;23.372;2023-05-10T11:41:12;13.33;;;9.33;;
6135;SDS011;24008;42.664;23.372;2023-05-10T11:43:39;15.63;;;10.30;;
6135;SDS011;24008;42.664;23.372;2023-05-10T11:46:07;13.70;;;10.37;;
6135;SDS011;24008;42.664;23.372;2023-05-10T11:48:36;12.90;;;9.33;;
6135;SDS011;24008;42.664;23.372;2023-05-10T11:51:04;11.97;;;8.63;;
6135;SDS011;24008;42.664;23.372;2023-05-10T11:53:32;11.80;;;9.10;;
6135;SDS011;24008;42.664;23.372;2023-05-10T11:56:03;12.10;;;8.93;;
6135;SDS011;24008;42.664;23.372;2023-05-10T11:58:30;15.73;;;9.30;;
6135;SDS011;24008;42.664;23.372;2023-05-10T12:00:58;13.10;;;9.60;;
6135;SDS011;24008;42.664;23.372;2023-05-10T12:03:25;13.97;;;9.97;;
6135;SDS011;24008;42.664;23.372;2023-05-10T12:05:54;12.60;;;9.93;;
6135;SDS011;24008;42.664;23.372;2023-05-10T12:08:22;14.10;;;10.23;;
6135;SDS011;24008;42.664;23.372;2023-05-10T12:10:50;14.60;;;10.00;;
6135;SDS011;24008;42.664;23.372;2023-05-10T12:13:18;13.00;;;8.63;;
6135;SDS011;24008;42.664;23.372;2023-05-10T12:15:58;11.07;;;8.90;;
6135;SDS011;24008;42.664;23.372;2023-05-10T12:18:25;14.97;;;11.33;;
6135;SDS011;24008;42.664;23.372;2023-05-10T12:20:53;15.83;;;9.47;;
6135;SDS011;24008;42.664;23.372;2023-05-10T12:23:20;14.70;;;10.17;;
6135;SDS011;24008;42.664;23.372;2023-05-10T12:25:47;11.30;;;8.50;;
6135;SDS011;24008;42.664;23.372;2023-05-10T12:28:14;13.97;;;9.90;;
6135;SDS011;24008;42.664;23.372;2023-05-10T12:30:41;12.43;;;10.40;;
6135;SDS011;24008;42.664;23.372;2023-05-10T12:33:08;18.57;;;10.17;;
6135;SDS011;24008;42.664;23.372;2023-05-10T12:35:46;15.80;;;11.33;;
6135;SDS011;24008;42.664;23.372;2023-05-10T12:38:28;13.83;;;10.13;;
6135;SDS011;24008;42.664;23.372;2023-05-10T12:40:57;13.73;;;9.73;;
6135;SDS011;24008;42.664;23.372;2023-05-10T12:43:25;13.17;;;9.43;;
6135;SDS011;24008;42.664;23.372;2023-05-10T12:45:52;11.27;;;8.50;;
6135;SDS011;24008;42.664;23.372;2023-05-10T12:48:18;15.53;;;10.20;;
6135;SDS011;24008;42.664;23.372;2023-05-10T12:50:45;12.70;;;9.40;;
6135;SDS011;24008;42.664;23.372;2023-05-10T12:53:13;12.67;;;8.90;;
6135;SDS011;24008;42.664;23.372;2023-05-10T12:55:43;12.63;;;9.70;;
6135;SDS011;24008;42.664;23.372;2023-05-10T12:58:10;11.73;;;8.77;;
6135;SDS011;24008;42.664;23.372;2023-05-10T13:00:37;10.47;;;8.80;;
6135;SDS011;24008;42.664;23.372;2023-05-10T13:03:04;12.83;;;9.00;;
6135;SDS011;24008;42.664;23.372;2023-05-10T13:05:31;15.97;;;10.43;;
6135;SDS011;24008;42.664;23.372;2023-05-10T13:07:58;12.23;;;9.40;;
6135;SDS011;24008;42.664;23.372;2023-05-10T13:10:25;12.47;;;9.37;;
6135;SDS011;24008;42.664;23.372;2023-05-10T13:12:53;14.70;;;10.40;;
6135;SDS011;24008;42.664;23.372;2023-05-10T13:15:20;12.70;;;9.10;;
6135;SDS011;24008;42.664;23.372;2023-05-10T13:17:47;10.47;;;8.40;;
6135;SDS011;24008;42.664;23.372;2023-05-10T13:20:14;11.93;;;9.73;;
6135;SDS011;24008;42.664;23.372;2023-05-10T13:22:41;15.63;;;10.37;;
6135;SDS011;24008;42.664;23.372;2023-05-10T13:25:09;14.93;;;9.93;;
6135;SDS011;24008;42.664;23.372;2023-05-10T13:27:36;13.47;;;9.20;;
6135;SDS011;24008;42.664;23.372;2023-05-10T13:30:05;12.63;;;8.93;;
6135;SDS011;24008;42.664;23.372;2023-05-10T13:32:32;15.70;;;9.10;;
6135;SDS011;24008;42.664;23.372;2023-05-10T13:35:00;13.43;;;9.10;;
6135;SDS011;24008;42.664;23.372;2023-05-10T13:37:28;13.20;;;9.43;;
6135;SDS011;24008;42.664;23.372;2023-05-10T13:39:55;12.00;;;8.90;;
6135;SDS011;24008;42.664;23.372;2023-05-10T13:42:22;13.13;;;8.90;;
6135;SDS011;24008;42.664;23.372;2023-05-10T13:44:49;13.10;;;9.17;;
6135;SDS011;24008;42.664;23.372;2023-05-10T13:47:18;13.33;;;10.43;;
6135;SDS011;24008;42.664;23.372;2023-05-10T13:49:46;12.83;;;8.70;;
6135;SDS011;24008;42.664;23.372;2023-05-10T13:52:13;10.60;;;8.43;;
6135;SDS011;24008;42.664;23.372;2023-05-10T13:54:40;9.43;;;7.90;;
6135;SDS011;24008;42.664;23.372;2023-05-10T13:57:06;14.63;;;9.27;;
6135;SDS011;24008;42.664;23.372;2023-05-10T13:59:34;13.57;;;9.10;;
6135;SDS011;24008;42.664;23.372;2023-05-10T14:02:00;10.93;;;8.20;;
6135;SDS011;24008;42.664;23.372;2023-05-10T14:04:29;12.30;;;9.57;;
6135;SDS011;24008;42.664;23.372;2023-05-10T14:06:56;13.10;;;9.50;;
6135;SDS011;24008;42.664;23.372;2023-05-10T14:09:23;14.00;;;9.20;;
6135;SDS011;24008;42.664;23.372;2023-05-10T14:11:50;11.97;;;9.00;;
6135;SDS011;24008;42.664;23.372;2023-05-10T14:14:17;10.87;;;9.10;;
6135;SDS011;24008;42.664;23.372;2023-05-10T14:16:45;12.97;;;9.40;;
6135;SDS011;24008;42.664;23.372;2023-05-10T14:19:12;11.33;;;9.60;;
6135;SDS011;24008;42.664;23.372;2023-05-10T14:21:40;13.90;;;10.03;;
6135;SDS011;24008;42.664;23.372;2023-05-10T14:24:08;13.80;;;9.57;;
6135;SDS011;24008;42.664;23.372;2023-05-10T14:26:35;15.70;;;10.23;;
6135;SDS011;24008;42.664;23.372;2023-05-10T14:29:02;11.73;;;8.67;;
6135;SDS011;24008;42.664;23.372;2023-05-10T14:31:28;12.47;;;9.93;;
6135;SDS011;24008;42.664;23.372;2023-05-10T14:33:56;16.00;;;10.87;;
6135;SDS011;24008;42.664;23.372;2023-05-10T14:36:24;11.23;;;9.27;;
6135;SDS011;24008;42.664;23.372;2023-05-10T14:38:52;12.63;;;9.83;;
6135;SDS011;24008;42.664;23.372;2023-05-10T14:41:19;15.40;;;10.80;;
6135;SDS011;24008;42.664;23.372;2023-05-10T14:43:46;13.33;;;10.00;;
6135;SDS011;24008;42.664;23.372;2023-05-10T14:46:12;16.70;;;10.30;;